ME05 weather

Public forecast

Using degrees Fahrenheit for public forecast. Weather courtesy of forecast.io.

Closest aviation weather report (METAR) to Allen St Peter Memorial Airport

Closest report is Presque Isle International Airport, 17.9 nm (33.2 km) ESE. Retrieved 2020/08/09 07:56 UTC (27 minutes ago):

KPQI 090756Z AUTO 00000KT 10SM CLR 14/13 A3003 RMK AO2 SLP193 T01390128

Closest aviation forecast (TAF) to Allen St Peter Memorial Airport

Closest forecast is Presque Isle International Airport, 17.9 nm (33.2 km) ESE. Retrieved 2020/08/09 06:22 UTC (2 hours ago):

TAF KPQI 090520Z 0906/1006 24004KT P6SM FEW090 FM091400 26007KT P6SM SCT100 FM100500 24004KT P6SM FEW090